createdAt,value
2018-10-19T00:00:48.649Z,22.82
2018-10-19T00:01:58.296Z,24.40
2018-10-19T00:03:07.947Z,23.77
2018-10-19T00:04:17.785Z,25.52
2018-10-19T00:05:27.309Z,22.55
2018-10-19T00:06:36.966Z,23.87
2018-10-19T00:07:46.730Z,25.97
2018-10-19T00:08:56.608Z,22.60
2018-10-19T00:10:07.088Z,22.40
2018-10-19T00:11:16.925Z,23.80
2018-10-19T00:12:26.510Z,22.77
2018-10-19T00:13:36.229Z,23.12
2018-10-19T00:14:46.012Z,25.08
2018-10-19T00:15:59.690Z,23.47
2018-10-19T00:17:09.233Z,23.75
2018-10-19T00:18:18.917Z,25.23
2018-10-19T00:19:28.585Z,23.80
2018-10-19T00:20:44.112Z,24.40
2018-10-19T00:21:53.941Z,23.73
2018-10-19T00:23:03.718Z,24.32
2018-10-19T00:24:13.523Z,22.50
2018-10-19T00:25:23.146Z,23.65
2018-10-19T00:26:36.376Z,24.70
2018-10-19T00:27:46.045Z,22.60
2018-10-19T00:28:55.682Z,25.72
2018-10-19T00:30:06.126Z,23.25
2018-10-19T00:31:15.851Z,24.85
2018-10-19T00:32:25.538Z,22.87
2018-10-19T00:33:35.288Z,26.40
2018-10-19T00:34:47.979Z,23.20
2018-10-19T00:35:57.724Z,22.82
2018-10-19T00:37:07.389Z,24.18
2018-10-19T00:38:17.094Z,22.22
2018-10-19T00:39:26.861Z,23.70
2018-10-19T00:40:36.483Z,23.32
2018-10-19T00:41:46.262Z,22.85
2018-10-19T00:42:55.874Z,25.65
2018-10-19T00:44:05.477Z,21.70
2018-10-19T00:45:15.185Z,24.32
2018-10-19T00:46:24.700Z,23.75
2018-10-19T00:47:34.288Z,23.02
2018-10-19T00:48:43.816Z,23.67
2018-10-19T00:49:53.540Z,22.93
2018-10-19T00:51:03.229Z,23.85
2018-10-19T00:52:12.873Z,24.10
2018-10-19T00:53:22.574Z,24.98
2018-10-19T00:54:32.262Z,26.10
2018-10-19T00:55:41.999Z,26.10
2018-10-19T00:56:51.774Z,23.83
2018-10-19T00:58:01.718Z,22.42
2018-10-19T00:59:11.442Z,25.82
2018-10-19T01:00:20.942Z,23.67
2018-10-19T01:01:30.700Z,23.15
2018-10-19T01:02:40.243Z,22.22
2018-10-19T01:03:49.941Z,22.32
2018-10-19T01:04:59.667Z,23.02
2018-10-19T01:06:09.406Z,23.98
2018-10-19T01:07:19.176Z,24.25
2018-10-19T01:08:29.022Z,24.30
2018-10-19T01:09:38.786Z,23.80
2018-10-19T01:10:48.534Z,23.15
2018-10-19T01:11:58.126Z,22.87
2018-10-19T01:13:07.773Z,23.50
2018-10-19T01:14:17.625Z,24.92
2018-10-19T01:15:28.420Z,22.70
2018-10-19T01:16:38.198Z,24.67
2018-10-19T01:17:47.896Z,24.05
2018-10-19T01:18:57.598Z,22.73
2018-10-19T01:20:07.293Z,24.70
2018-10-19T01:21:16.892Z,21.20
2018-10-19T01:22:26.674Z,21.82
2018-10-19T01:23:36.358Z,23.38
2018-10-19T01:24:45.855Z,24.18
2018-10-19T01:25:55.485Z,22.98
2018-10-19T01:27:05.332Z,23.15
2018-10-19T01:28:14.970Z,22.95
2018-10-19T01:29:24.615Z,23.38
2018-10-19T01:30:34.145Z,22.58
2018-10-19T01:31:43.786Z,21.85
2018-10-19T01:32:53.274Z,23.80
2018-10-19T01:34:02.892Z,23.77
2018-10-19T01:35:16.687Z,23.75
2018-10-19T01:36:30.403Z,22.70
2018-10-19T01:37:40.206Z,24.12
2018-10-19T01:38:49.777Z,20.65
2018-10-19T01:39:59.708Z,22.67
2018-10-19T01:41:09.280Z,21.85
2018-10-19T01:42:19.048Z,23.73
2018-10-19T01:43:28.685Z,21.62
2018-10-19T01:44:38.622Z,23.25
2018-10-19T01:45:53.680Z,22.37
2018-10-19T01:47:03.624Z,24.63
2018-10-19T01:48:13.385Z,22.85
2018-10-19T01:49:23.070Z,22.32
2018-10-19T01:50:32.640Z,22.00
2018-10-19T01:51:42.278Z,22.55
2018-10-19T01:52:51.741Z,21.37
2018-10-19T01:54:01.721Z,24.40
2018-10-19T01:55:11.448Z,24.15
2018-10-19T01:56:21.037Z,22.73
2018-10-19T01:57:30.927Z,22.45
2018-10-19T01:58:40.529Z,23.15
2018-10-19T01:59:50.354Z,23.00
2018-10-19T02:01:00.006Z,23.95
2018-10-19T02:02:09.795Z,22.02
2018-10-19T02:03:19.274Z,22.22
2018-10-19T02:04:28.917Z,23.70
2018-10-19T02:05:39.010Z,23.42
2018-10-19T02:06:48.700Z,23.45
2018-10-19T02:07:58.443Z,24.67
2018-10-19T02:09:08.670Z,22.98
2018-10-19T02:10:18.165Z,22.82
2018-10-19T02:11:27.671Z,23.30
2018-10-19T02:12:37.398Z,23.47
2018-10-19T02:13:47.004Z,21.75
2018-10-19T02:14:56.761Z,21.73
2018-10-19T02:16:06.474Z,22.00
2018-10-19T02:17:16.192Z,22.42
2018-10-19T02:18:25.563Z,22.65
2018-10-19T02:19:35.627Z,22.65
2018-10-19T02:20:45.328Z,22.42
2018-10-19T02:21:55.065Z,22.80
2018-10-19T02:23:04.923Z,22.93
2018-10-19T02:24:14.571Z,22.80
2018-10-19T02:25:24.481Z,20.82
2018-10-19T02:26:34.081Z,21.23
2018-10-19T02:27:43.744Z,21.45
2018-10-19T02:28:53.469Z,22.73
2018-10-19T02:30:03.345Z,20.95
2018-10-19T02:31:12.975Z,23.02
2018-10-19T02:32:22.702Z,22.02
2018-10-19T02:33:32.314Z,20.35
2018-10-19T02:34:45.325Z,21.57
2018-10-19T02:35:54.767Z,22.70
2018-10-19T02:37:04.212Z,21.52
2018-10-19T02:38:14.103Z,21.27
2018-10-19T02:39:24.063Z,21.85
2018-10-19T02:40:37.707Z,23.95
2018-10-19T02:41:47.430Z,20.25
2018-10-19T02:42:57.167Z,23.35
2018-10-19T02:44:06.835Z,23.18
2018-10-19T02:45:20.003Z,22.13
2018-10-19T02:46:32.509Z,23.55
2018-10-19T02:47:42.197Z,23.83
2018-10-19T02:48:51.836Z,23.55
2018-10-19T02:50:06.346Z,21.77
2018-10-19T02:51:15.859Z,22.37
2018-10-19T02:52:25.588Z,23.25
2018-10-19T02:53:35.192Z,21.75
2018-10-19T02:54:44.785Z,23.47
2018-10-19T02:55:54.160Z,23.60
2018-10-19T02:57:03.753Z,23.47
2018-10-19T02:58:13.286Z,23.75
2018-10-19T02:59:22.896Z,25.17
2018-10-19T03:00:32.620Z,23.25
2018-10-19T03:01:42.134Z,20.43
2018-10-19T03:02:51.823Z,22.02
2018-10-19T03:04:06.846Z,24.05
2018-10-19T03:05:16.709Z,23.20
2018-10-19T03:06:26.444Z,22.15
2018-10-19T03:07:35.880Z,23.22
2018-10-19T03:08:45.599Z,22.65
2018-10-19T03:10:00.710Z,24.32
2018-10-19T03:11:10.514Z,21.90
2018-10-19T03:12:20.213Z,24.12
2018-10-19T03:13:29.707Z,25.17
2018-10-19T03:14:39.299Z,24.47
2018-10-19T03:15:48.889Z,23.52
2018-10-19T03:16:58.515Z,25.97
2018-10-19T03:18:08.117Z,26.27
2018-10-19T03:19:17.785Z,25.17
2018-10-19T03:20:27.453Z,25.35
2018-10-19T03:21:37.178Z,25.37
2018-10-19T03:22:46.750Z,26.33
2018-10-19T03:23:56.153Z,23.30
2018-10-19T03:25:05.629Z,22.52
2018-10-19T03:26:15.329Z,23.87
2018-10-19T03:27:24.742Z,24.85
2018-10-19T03:28:34.524Z,24.23
2018-10-19T03:29:44.129Z,25.23
2018-10-19T03:30:53.765Z,25.97
2018-10-19T03:32:03.426Z,21.42
2018-10-19T03:33:13.150Z,24.82
2018-10-19T03:34:22.781Z,22.82
2018-10-19T03:35:32.359Z,22.20
2018-10-19T03:36:41.938Z,22.00
2018-10-19T03:37:51.422Z,22.00
2018-10-19T03:39:01.151Z,21.07
2018-10-19T03:40:10.986Z,21.90
2018-10-19T03:41:20.595Z,22.15
2018-10-19T03:42:30.306Z,20.62
2018-10-19T03:43:40.044Z,21.77
2018-10-19T03:44:49.824Z,21.17
2018-10-19T03:45:59.686Z,21.73
2018-10-19T03:47:09.202Z,21.97
2018-10-19T03:48:18.820Z,23.35
2018-10-19T03:49:28.466Z,21.80
2018-10-19T03:50:38.182Z,21.60
2018-10-19T03:51:47.708Z,23.70
2018-10-19T03:52:57.576Z,23.42
2018-10-19T03:54:07.244Z,23.70
2018-10-19T03:55:16.931Z,21.90
2018-10-19T03:56:26.624Z,22.22
2018-10-19T03:57:36.198Z,23.55
2018-10-19T03:58:45.975Z,22.35
2018-10-19T03:59:55.384Z,23.50
2018-10-19T04:01:05.072Z,21.30
2018-10-19T04:02:14.668Z,23.15
2018-10-19T04:03:24.483Z,21.23
2018-10-19T04:04:34.027Z,22.32
2018-10-19T04:05:43.750Z,23.05
2018-10-19T04:06:53.314Z,21.33
2018-10-19T04:08:02.942Z,22.75
2018-10-19T04:09:13.770Z,24.87
2018-10-19T04:10:23.248Z,21.05
2018-10-19T04:11:33.175Z,22.25
2018-10-19T04:12:42.812Z,21.00
2018-10-19T04:13:52.501Z,22.50
2018-10-19T04:15:06.838Z,22.50
2018-10-19T04:16:16.639Z,24.90
2018-10-19T04:17:26.297Z,22.77
2018-10-19T04:18:36.013Z,19.55
2018-10-19T04:19:45.716Z,20.27
2018-10-19T04:20:55.349Z,22.35
2018-10-19T04:22:05.355Z,23.65
2018-10-19T04:23:15.097Z,22.13
2018-10-19T04:24:24.826Z,19.82
2018-10-19T04:25:34.904Z,23.00
2018-10-19T04:26:44.643Z,19.25
2018-10-19T04:27:54.234Z,22.10
2018-10-19T04:29:04.000Z,19.87
2018-10-19T04:30:13.886Z,19.85
2018-10-19T04:31:23.570Z,20.50
2018-10-19T04:32:32.953Z,19.67
2018-10-19T04:33:42.559Z,19.27
2018-10-19T04:34:52.411Z,20.02
2018-10-19T04:36:02.114Z,18.73
2018-10-19T04:37:11.747Z,21.55
2018-10-19T04:38:21.335Z,21.77
2018-10-19T04:39:31.038Z,21.65
2018-10-19T04:40:40.539Z,23.75
2018-10-19T04:41:54.186Z,22.75
2018-10-19T04:43:03.735Z,22.50
2018-10-19T04:44:13.389Z,22.82
2018-10-19T04:45:22.938Z,21.95
2018-10-19T04:46:32.590Z,22.75
2018-10-19T04:47:42.507Z,22.37
2018-10-19T04:48:52.340Z,20.50
2018-10-19T04:50:02.273Z,23.05
2018-10-19T04:51:17.911Z,24.67
2018-10-19T04:52:27.457Z,22.65
2018-10-19T04:53:37.297Z,22.00
2018-10-19T04:54:46.981Z,20.97
2018-10-19T04:55:56.560Z,20.45
2018-10-19T04:57:06.473Z,20.82
2018-10-19T04:58:15.949Z,22.73
2018-10-19T04:59:25.653Z,20.90
2018-10-19T05:00:35.164Z,21.80
2018-10-19T05:01:47.899Z,21.15
2018-10-19T05:02:57.560Z,21.70
2018-10-19T05:04:07.326Z,20.68
2018-10-19T05:05:16.879Z,20.52
2018-10-19T05:06:26.452Z,20.30
2018-10-19T05:07:36.398Z,20.37
2018-10-19T05:08:46.228Z,22.45
2018-10-19T05:09:55.852Z,22.90
2018-10-19T05:11:05.566Z,21.95
2018-10-19T05:12:15.104Z,22.27
2018-10-19T05:13:24.852Z,21.85
2018-10-19T05:14:34.545Z,23.12
2018-10-19T05:15:44.234Z,20.88
2018-10-19T05:16:53.919Z,23.60
2018-10-19T05:18:03.818Z,20.65
2018-10-19T05:19:13.287Z,22.30
2018-10-19T05:20:22.998Z,20.25
2018-10-19T05:21:32.591Z,21.90
2018-10-19T05:22:42.338Z,22.48
2018-10-19T05:23:51.998Z,21.23
2018-10-19T05:25:01.618Z,21.30
2018-10-19T05:26:11.086Z,21.17
2018-10-19T05:27:20.795Z,22.15
2018-10-19T05:28:30.335Z,21.97
2018-10-19T05:29:39.989Z,20.62
2018-10-19T05:30:49.583Z,20.02
2018-10-19T05:31:59.194Z,22.60
2018-10-19T05:33:08.986Z,20.00
2018-10-19T05:34:18.489Z,21.65
2018-10-19T05:35:28.009Z,20.50
2018-10-19T05:36:37.745Z,22.58
2018-10-19T05:37:47.328Z,22.45
2018-10-19T05:38:56.939Z,20.10
2018-10-19T05:40:07.569Z,21.85
2018-10-19T05:41:17.447Z,21.20
2018-10-19T05:42:27.098Z,21.37
2018-10-19T05:43:36.753Z,21.82
2018-10-19T05:44:46.301Z,19.62
2018-10-19T05:45:56.063Z,21.48
2018-10-19T05:47:05.919Z,21.50
2018-10-19T05:48:15.834Z,23.73
2018-10-19T05:49:25.561Z,18.77
2018-10-19T05:50:35.209Z,21.80
2018-10-19T05:51:44.931Z,23.83
2018-10-19T05:52:54.524Z,23.30
2018-10-19T05:54:03.922Z,23.30
2018-10-19T05:55:13.591Z,22.20
2018-10-19T05:56:23.180Z,21.68
2018-10-19T05:57:32.896Z,21.33
2018-10-19T05:58:42.410Z,20.48
2018-10-19T05:59:51.878Z,22.70
2018-10-19T06:01:11.464Z,22.27
2018-10-19T06:02:21.062Z,20.15
2018-10-19T06:03:31.003Z,21.30
2018-10-19T06:04:40.538Z,20.43
2018-10-19T06:05:50.236Z,22.98
2018-10-19T06:07:03.471Z,23.20
2018-10-19T06:08:13.143Z,21.65
2018-10-19T06:09:22.810Z,20.60
2018-10-19T06:10:32.388Z,22.90
2018-10-19T06:11:42.182Z,21.70
2018-10-19T06:12:52.052Z,20.72
2018-10-19T06:14:01.519Z,23.52
2018-10-19T06:15:11.301Z,21.45
2018-10-19T06:16:21.053Z,23.77
2018-10-19T06:17:34.292Z,22.95
2018-10-19T06:18:43.865Z,21.93
2018-10-19T06:19:53.794Z,23.05
2018-10-19T06:21:03.844Z,22.40
2018-10-19T06:22:13.615Z,22.65
2018-10-19T06:23:26.758Z,23.57
2018-10-19T06:24:36.322Z,23.87
2018-10-19T06:25:45.855Z,25.37
2018-10-19T06:26:55.728Z,23.80
2018-10-19T06:28:05.441Z,26.60
2018-10-19T06:29:15.874Z,26.82
2018-10-19T06:30:26.027Z,25.50
2018-10-19T06:31:35.595Z,26.62
2018-10-19T06:32:45.105Z,24.52
2018-10-19T06:33:54.733Z,24.32
2018-10-19T06:35:04.555Z,25.75
2018-10-19T06:36:17.873Z,24.18
2018-10-19T06:37:27.369Z,24.35
2018-10-19T06:38:37.104Z,25.80
2018-10-19T06:39:46.702Z,24.70
2018-10-19T06:40:56.207Z,25.00
2018-10-19T06:42:05.945Z,23.38
2018-10-19T06:43:15.714Z,24.15
2018-10-19T06:44:25.348Z,25.55
2018-10-19T06:45:35.010Z,24.72
2018-10-19T06:46:44.972Z,25.48
2018-10-19T06:47:54.665Z,26.50
2018-10-19T06:49:04.428Z,25.65
2018-10-19T06:50:14.137Z,24.70
2018-10-19T06:51:24.054Z,28.02
2018-10-19T06:52:33.986Z,22.77
2018-10-19T06:53:43.598Z,26.20
2018-10-19T06:54:53.287Z,26.55
2018-10-19T06:56:02.997Z,27.67
2018-10-19T06:57:12.654Z,25.32
2018-10-19T06:58:22.539Z,25.45
2018-10-19T06:59:32.276Z,26.42
2018-10-19T07:00:41.855Z,25.17
2018-10-19T07:01:51.525Z,26.27
2018-10-19T07:03:01.287Z,24.95
2018-10-19T07:04:11.167Z,25.37
2018-10-19T07:05:21.099Z,25.68
2018-10-19T07:06:30.842Z,28.20
2018-10-19T07:07:40.708Z,25.85
2018-10-19T07:08:50.244Z,27.80
2018-10-19T07:09:59.929Z,25.48
2018-10-19T07:11:09.761Z,27.62
2018-10-19T07:12:19.456Z,26.30
2018-10-19T07:13:29.159Z,26.90
2018-10-19T07:14:38.983Z,25.77
2018-10-19T07:15:48.567Z,25.90
2018-10-19T07:16:58.353Z,23.90
2018-10-19T07:18:07.996Z,27.93
2018-10-19T07:19:17.802Z,25.88
2018-10-19T07:20:27.633Z,25.30
2018-10-19T07:21:37.419Z,28.05
2018-10-19T07:22:47.116Z,25.72
2018-10-19T07:23:56.732Z,24.92
2018-10-19T07:25:06.789Z,26.70
2018-10-19T07:26:16.762Z,26.87
2018-10-19T07:27:26.733Z,25.43
2018-10-19T07:28:36.348Z,26.02
2018-10-19T07:29:46.096Z,26.05
2018-10-19T07:30:55.882Z,26.23
2018-10-19T07:32:05.613Z,25.62
2018-10-19T07:33:15.304Z,25.37
2018-10-19T07:34:25.084Z,25.17
2018-10-19T07:35:38.290Z,26.30
2018-10-19T07:36:47.942Z,26.62
2018-10-19T07:37:57.570Z,24.90
2018-10-19T07:39:08.073Z,25.92
2018-10-19T07:40:17.877Z,23.38
2018-10-19T07:41:33.107Z,26.57
2018-10-19T07:42:42.651Z,25.77
2018-10-19T07:43:52.387Z,24.47
2018-10-19T07:45:02.175Z,26.97
2018-10-19T07:46:11.961Z,24.90
2018-10-19T07:47:21.648Z,25.35
2018-10-19T07:48:31.424Z,26.20
2018-10-19T07:49:41.239Z,24.27
2018-10-19T07:50:51.039Z,25.57
2018-10-19T07:52:00.754Z,25.97
2018-10-19T07:53:10.620Z,27.37
2018-10-19T07:54:20.429Z,26.15
2018-10-19T07:55:29.956Z,26.37
2018-10-19T07:56:39.781Z,26.07
2018-10-19T07:57:49.541Z,26.85
2018-10-19T07:58:59.221Z,29.00
2018-10-19T08:00:09.859Z,24.90
2018-10-19T08:01:19.710Z,39.53
2018-10-19T08:02:29.508Z,37.08
2018-10-19T08:03:39.142Z,26.48
2018-10-19T08:04:48.670Z,25.65
2018-10-19T08:05:58.546Z,26.50
2018-10-19T08:07:09.081Z,25.97
2018-10-19T08:08:18.895Z,27.35
2018-10-19T08:09:28.921Z,27.50
2018-10-19T08:10:38.862Z,26.65
2018-10-19T08:11:49.128Z,27.35
2018-10-19T08:12:59.062Z,28.62
2018-10-19T08:14:08.929Z,26.90
2018-10-19T08:15:18.589Z,28.17
2018-10-19T08:16:28.414Z,29.20
2018-10-19T08:17:38.418Z,26.52
2018-10-19T08:18:48.025Z,29.77
2018-10-19T08:19:57.736Z,29.45
2018-10-19T08:21:08.171Z,30.92
2018-10-19T08:22:17.986Z,28.47
2018-10-19T08:23:27.822Z,30.80
2018-10-19T08:24:37.714Z,31.35
2018-10-19T08:25:47.570Z,33.10
2018-10-19T08:26:57.568Z,30.57
2018-10-19T08:28:07.205Z,32.93
2018-10-19T08:29:17.095Z,32.10
2018-10-19T08:30:26.651Z,32.33
2018-10-19T08:31:36.423Z,30.68
2018-10-19T08:32:46.368Z,31.40
2018-10-19T08:33:56.155Z,31.90
2018-10-19T08:35:06.533Z,36.05
2018-10-19T08:36:16.455Z,33.18
2018-10-19T08:37:26.214Z,34.27
2018-10-19T08:38:36.133Z,34.63
2018-10-19T08:39:45.819Z,34.38
2018-10-19T08:40:59.510Z,35.03
2018-10-19T08:42:09.202Z,35.75
2018-10-19T08:43:18.823Z,31.20
2018-10-19T08:44:28.381Z,33.48
2018-10-19T08:45:37.975Z,33.15
2018-10-19T08:46:51.400Z,33.33
2018-10-19T08:48:01.167Z,34.75
2018-10-19T08:49:11.939Z,33.50
2018-10-19T08:50:21.682Z,31.27
2018-10-19T08:51:31.409Z,33.98
2018-10-19T08:52:40.861Z,31.57
2018-10-19T08:53:50.613Z,33.20
2018-10-19T08:55:00.235Z,32.90
2018-10-19T08:56:10.092Z,33.63
2018-10-19T08:57:20.065Z,33.88
2018-10-19T08:58:29.701Z,33.35
2018-10-19T08:59:39.402Z,34.18
2018-10-19T09:00:49.302Z,32.42
2018-10-19T09:01:58.851Z,34.38
2018-10-19T09:03:08.560Z,32.25
2018-10-19T09:04:18.065Z,33.45
2018-10-19T09:05:27.802Z,33.08
2018-10-19T09:06:37.328Z,31.77
2018-10-19T09:07:46.934Z,31.33
2018-10-19T09:08:56.636Z,32.15
2018-10-19T09:10:06.601Z,32.08
2018-10-19T09:11:16.546Z,31.20
2018-10-19T09:12:26.368Z,32.83
2018-10-19T09:13:36.009Z,33.67
2018-10-19T09:14:51.946Z,33.25
2018-10-19T09:16:01.735Z,32.25
2018-10-19T09:17:11.473Z,31.93
2018-10-19T09:18:21.117Z,32.93
2018-10-19T09:19:30.646Z,36.00
2018-10-19T09:20:40.680Z,30.52
2018-10-19T09:21:50.437Z,32.90
2018-10-19T09:22:59.915Z,31.15
2018-10-19T09:24:09.321Z,32.40
2018-10-19T09:25:19.130Z,32.20
2018-10-19T09:26:28.711Z,32.17
2018-10-19T09:27:38.484Z,30.45
2018-10-19T09:28:48.185Z,32.65
2018-10-19T09:29:57.765Z,32.13
2018-10-19T09:31:07.352Z,33.10
2018-10-19T09:32:17.470Z,33.55
2018-10-19T09:33:27.176Z,35.10
2018-10-19T09:34:37.093Z,32.90
2018-10-19T09:35:46.865Z,32.30
2018-10-19T09:36:56.528Z,32.53
2018-10-19T09:38:06.145Z,33.25
2018-10-19T09:39:15.873Z,32.53
2018-10-19T09:40:25.518Z,35.10
2018-10-19T09:41:35.062Z,31.17
2018-10-19T09:42:50.434Z,33.30
2018-10-19T09:44:00.225Z,32.55
2018-10-19T09:45:09.768Z,34.80
2018-10-19T09:46:19.357Z,33.73
2018-10-19T09:47:29.244Z,33.50
2018-10-19T09:48:39.035Z,33.67
2018-10-19T09:49:48.607Z,33.15
2018-10-19T09:50:58.455Z,36.40
2018-10-19T09:52:08.294Z,34.35
2018-10-19T09:53:17.936Z,33.38
2018-10-19T09:54:27.752Z,34.70
2018-10-19T09:55:37.620Z,32.10
2018-10-19T09:56:47.362Z,35.95
2018-10-19T09:57:57.118Z,35.60
2018-10-19T09:59:06.786Z,32.40
2018-10-19T10:00:21.776Z,32.67
2018-10-19T10:01:31.682Z,33.60
2018-10-19T10:02:41.396Z,34.92
2018-10-19T10:03:51.188Z,34.90
2018-10-19T10:05:00.943Z,35.55
2018-10-19T10:06:10.778Z,35.05
2018-10-19T10:07:20.568Z,36.83
2018-10-19T10:08:30.211Z,34.05
2018-10-19T10:09:39.738Z,35.28
2018-10-19T10:10:50.519Z,35.43
2018-10-19T10:12:00.159Z,33.90
2018-10-19T10:13:09.780Z,35.30
2018-10-19T10:14:19.368Z,34.13
2018-10-19T10:15:28.960Z,35.92
2018-10-19T10:16:49.103Z,37.73
2018-10-19T10:17:58.627Z,35.73
2018-10-19T10:19:08.594Z,36.55
2018-10-19T10:20:18.135Z,38.40
2018-10-19T10:21:27.810Z,36.70
2018-10-19T10:22:37.434Z,37.28
2018-10-19T10:23:47.067Z,38.20
2018-10-19T10:24:56.901Z,37.73
2018-10-19T10:26:06.602Z,35.63
2018-10-19T10:27:16.132Z,35.35
2018-10-19T10:28:25.759Z,36.40
2018-10-19T10:29:35.334Z,37.03
2018-10-19T10:30:48.405Z,38.42
2018-10-19T10:31:57.936Z,38.58
2018-10-19T10:33:07.601Z,37.90
2018-10-19T10:34:17.195Z,38.58
2018-10-19T10:35:26.898Z,37.83
2018-10-19T10:36:36.696Z,37.53
2018-10-19T10:37:46.366Z,40.28
2018-10-19T10:38:56.126Z,40.78
2018-10-19T10:40:06.474Z,38.17
2018-10-19T10:41:16.116Z,39.75
2018-10-19T10:42:25.586Z,37.93
2018-10-19T10:43:35.170Z,38.75
2018-10-19T10:44:44.999Z,38.55
2018-10-19T10:45:54.688Z,37.25
2018-10-19T10:47:04.461Z,38.63
2018-10-19T10:48:14.203Z,37.05
2018-10-19T10:49:23.707Z,38.85
2018-10-19T10:50:33.593Z,37.55
2018-10-19T10:51:43.319Z,39.05
2018-10-19T10:52:52.855Z,38.00
2018-10-19T10:54:02.558Z,41.92
2018-10-19T10:55:12.527Z,36.98
2018-10-19T10:56:22.302Z,37.25
2018-10-19T10:57:31.934Z,38.53
2018-10-19T10:58:41.708Z,36.15
2018-10-19T10:59:51.428Z,39.60
2018-10-19T11:01:01.168Z,37.45
2018-10-19T11:02:10.992Z,39.67
2018-10-19T11:03:20.714Z,36.05
2018-10-19T11:04:30.302Z,40.17
2018-10-19T11:05:39.938Z,43.25
2018-10-19T11:06:49.613Z,39.75
2018-10-19T11:07:59.333Z,40.17
2018-10-19T11:09:10.112Z,37.48
2018-10-19T11:10:19.635Z,42.48
2018-10-19T11:11:29.401Z,37.95
2018-10-19T11:12:39.099Z,38.00
2018-10-19T11:13:48.791Z,38.42
2018-10-19T11:14:58.280Z,38.23
2018-10-19T11:16:08.754Z,36.53
2018-10-19T11:17:18.805Z,41.58
2018-10-19T11:18:28.568Z,36.23
2018-10-19T11:19:38.466Z,37.17
2018-10-19T11:20:48.162Z,39.08
2018-10-19T11:21:57.893Z,39.33
2018-10-19T11:23:07.479Z,39.00
2018-10-19T11:24:17.156Z,37.53
2018-10-19T11:25:26.866Z,38.70
2018-10-19T11:26:36.614Z,41.05
2018-10-19T11:27:46.234Z,38.90
2018-10-19T11:28:55.755Z,39.10
2018-10-19T11:30:06.590Z,37.00
2018-10-19T11:31:20.275Z,39.73
2018-10-19T11:32:29.905Z,39.15
2018-10-19T11:33:39.522Z,37.35
2018-10-19T11:34:49.170Z,39.95
2018-10-19T11:35:58.746Z,39.48
2018-10-19T11:37:08.391Z,41.10
2018-10-19T11:38:17.961Z,39.98
2018-10-19T11:39:27.519Z,39.83
2018-10-19T11:40:38.296Z,38.78
2018-10-19T11:41:51.581Z,41.00
2018-10-19T11:43:01.391Z,39.55
2018-10-19T11:44:10.901Z,41.92
2018-10-19T11:45:20.516Z,39.58
2018-10-19T11:46:30.180Z,43.02
2018-10-19T11:47:39.777Z,40.98
2018-10-19T11:48:49.469Z,41.05
2018-10-19T11:49:58.998Z,43.58
2018-10-19T11:51:08.661Z,44.85
2018-10-19T11:52:18.385Z,43.38
2018-10-19T11:53:28.029Z,45.35
2018-10-19T11:54:37.728Z,43.10
2018-10-19T11:55:47.387Z,46.00
2018-10-19T11:56:57.106Z,46.23
2018-10-19T11:58:06.874Z,45.35
2018-10-19T11:59:16.561Z,46.98
2018-10-19T12:00:26.292Z,43.90
2018-10-19T12:01:36.014Z,45.60
2018-10-19T12:02:45.579Z,43.02
2018-10-19T12:03:55.470Z,44.95
2018-10-19T12:05:06.092Z,45.05
2018-10-19T12:06:15.683Z,46.33
2018-10-19T12:07:25.412Z,43.40
2018-10-19T12:08:35.183Z,46.65
2018-10-19T12:09:44.737Z,43.63
2018-10-19T12:10:57.973Z,45.50
2018-10-19T12:12:07.649Z,45.75
2018-10-19T12:13:18.062Z,45.80
2018-10-19T12:14:27.737Z,46.58
2018-10-19T12:15:37.441Z,44.38
2018-10-19T12:16:47.004Z,43.17
2018-10-19T12:17:56.537Z,45.25
2018-10-19T12:19:06.395Z,42.98
2018-10-19T12:20:17.331Z,44.18
2018-10-19T12:21:26.911Z,46.77
2018-10-19T12:22:36.507Z,45.25
2018-10-19T12:23:46.003Z,45.63
2018-10-19T12:24:55.595Z,45.67
2018-10-19T12:26:05.484Z,44.77
2018-10-19T12:27:15.170Z,47.95
2018-10-19T12:28:24.714Z,44.05
2018-10-19T12:29:34.294Z,45.90
2018-10-19T12:30:44.014Z,45.50
2018-10-19T12:31:53.562Z,42.85
2018-10-19T12:33:03.397Z,46.45
2018-10-19T12:34:12.953Z,47.98
2018-10-19T12:35:22.653Z,45.40
2018-10-19T12:36:32.268Z,46.70
2018-10-19T12:37:42.006Z,48.90
2018-10-19T12:38:51.684Z,44.03
2018-10-19T12:40:01.281Z,46.68
2018-10-19T12:41:10.920Z,47.70
2018-10-19T12:42:20.613Z,45.52
2018-10-19T12:43:30.507Z,43.87
2018-10-19T12:44:40.113Z,45.00
2018-10-19T12:46:29.128Z,46.65
2018-10-19T12:47:42.458Z,43.17
2018-10-19T12:48:52.129Z,46.13
2018-10-19T12:50:01.871Z,45.52
2018-10-19T12:51:11.527Z,43.92
2018-10-19T12:52:21.220Z,46.18
2018-10-19T12:53:31.242Z,43.83
2018-10-19T12:54:40.801Z,45.03
2018-10-19T12:55:50.613Z,46.58
2018-10-19T12:57:00.328Z,45.70
2018-10-19T12:58:10.016Z,43.17
2018-10-19T12:59:19.651Z,44.85
2018-10-19T13:00:29.497Z,46.35
2018-10-19T13:01:38.955Z,43.17
2018-10-19T13:02:48.695Z,43.08
2018-10-19T13:03:58.944Z,41.85
2018-10-19T13:05:08.489Z,43.90
2018-10-19T13:06:18.183Z,43.78
2018-10-19T13:07:27.833Z,42.78
2018-10-19T13:08:37.650Z,41.90
2018-10-19T13:09:47.621Z,40.45
2018-10-19T13:10:56.981Z,43.20
2018-10-19T13:12:06.417Z,44.88
2018-10-19T13:13:16.185Z,41.68
2018-10-19T13:14:25.806Z,41.05
2018-10-19T13:15:35.165Z,43.30
2018-10-19T13:16:44.913Z,42.27
2018-10-19T13:17:54.446Z,41.35
2018-10-19T13:19:04.083Z,41.60
2018-10-19T13:20:13.854Z,39.65
2018-10-19T13:21:23.684Z,38.65
2018-10-19T13:22:33.516Z,41.70
2018-10-19T13:23:43.117Z,39.42
2018-10-19T13:24:52.813Z,37.35
2018-10-19T13:26:02.570Z,41.65
2018-10-19T13:27:12.063Z,38.98
2018-10-19T13:28:21.727Z,40.00
2018-10-19T13:29:31.367Z,38.35
2018-10-19T13:30:41.134Z,38.55
2018-10-19T13:31:50.498Z,41.55
2018-10-19T13:33:00.173Z,37.60
2018-10-19T13:34:09.958Z,37.05
2018-10-19T13:35:19.680Z,38.00
2018-10-19T13:36:29.314Z,38.23
2018-10-19T13:37:39.006Z,39.15
2018-10-19T13:38:48.609Z,37.80
2018-10-19T13:39:58.116Z,37.30
2018-10-19T13:41:07.693Z,36.93
2018-10-19T13:42:17.328Z,34.90
2018-10-19T13:43:26.998Z,37.05
2018-10-19T13:44:36.618Z,35.90
2018-10-19T13:45:46.253Z,35.00
2018-10-19T13:46:55.965Z,33.75
2018-10-19T13:48:12.308Z,34.33
2018-10-19T13:49:21.821Z,32.85
2018-10-19T13:50:31.420Z,31.82
2018-10-19T13:51:40.962Z,33.18
2018-10-19T13:52:50.631Z,33.23
2018-10-19T13:54:00.323Z,33.10
2018-10-19T13:55:10.050Z,34.10
2018-10-19T13:56:19.476Z,32.35
2018-10-19T13:57:29.265Z,34.63
2018-10-19T13:58:38.959Z,34.20
2018-10-19T13:59:48.518Z,34.33
2018-10-19T14:00:58.163Z,33.30
2018-10-19T14:02:07.665Z,30.97
2018-10-19T14:03:17.248Z,30.85
2018-10-19T14:04:26.704Z,32.03
2018-10-19T14:05:36.448Z,31.75
2018-10-19T14:06:46.030Z,31.40
2018-10-19T14:07:55.658Z,31.10
2018-10-19T14:09:08.251Z,31.60
2018-10-19T14:10:17.886Z,32.67
2018-10-19T14:11:27.577Z,30.55
2018-10-19T14:12:38.650Z,30.80
2018-10-19T14:13:48.350Z,31.95
2018-10-19T14:14:58.012Z,33.42
2018-10-19T14:16:07.800Z,31.93
2018-10-19T14:17:17.330Z,31.85
2018-10-19T14:18:26.781Z,30.92
2018-10-19T14:19:36.417Z,32.23
2018-10-19T14:20:46.159Z,34.63
2018-10-19T14:21:55.885Z,34.50
2018-10-19T14:23:06.076Z,34.03
2018-10-19T14:24:15.812Z,32.63
2018-10-19T14:25:25.385Z,32.38
2018-10-19T14:26:34.908Z,31.12
2018-10-19T14:27:44.993Z,36.15
2018-10-19T14:28:54.789Z,34.67
2018-10-19T14:30:04.909Z,33.73
2018-10-19T14:31:14.569Z,34.30
2018-10-19T14:32:24.514Z,32.80
2018-10-19T14:33:34.425Z,35.95
2018-10-19T14:34:43.865Z,36.42
2018-10-19T14:35:53.613Z,32.63
2018-10-19T14:37:03.369Z,34.85
2018-10-19T14:38:12.926Z,36.48
2018-10-19T14:39:22.786Z,33.00
2018-10-19T14:40:32.275Z,35.63
2018-10-19T14:41:42.035Z,36.33
2018-10-19T14:42:51.529Z,33.00
2018-10-19T14:44:01.082Z,32.95
2018-10-19T14:45:11.650Z,37.70
2018-10-19T14:46:20.921Z,36.90
2018-10-19T14:47:33.914Z,37.25
2018-10-19T14:48:43.540Z,37.35
2018-10-19T14:49:53.013Z,35.50
2018-10-19T14:51:02.700Z,34.60
2018-10-19T14:52:17.884Z,40.33
2018-10-19T14:53:27.549Z,37.65
2018-10-19T14:54:37.347Z,36.80
2018-10-19T14:55:47.182Z,36.40
2018-10-19T14:56:56.789Z,34.08
2018-10-19T14:58:06.312Z,36.38
2018-10-19T14:59:16.322Z,34.43
2018-10-19T15:00:25.931Z,35.75
2018-10-19T15:01:35.809Z,35.70